createdAt,value
2022-11-14T00:02:45.221Z,10.52
2022-11-14T00:05:49.580Z,10.43
2022-11-14T00:08:53.767Z,10.43
2022-11-14T00:11:57.983Z,10.90
2022-11-14T00:15:02.440Z,10.15
2022-11-14T00:18:07.258Z,9.93
2022-11-14T00:21:11.872Z,11.75
2022-11-14T00:24:15.899Z,12.18
2022-11-14T00:27:20.552Z,12.30
2022-11-14T00:30:25.360Z,12.35
2022-11-14T00:33:29.922Z,13.02
2022-11-14T00:36:34.399Z,14.00
2022-11-14T00:39:38.669Z,16.17
2022-11-14T00:42:42.792Z,17.48
2022-11-14T00:45:48.048Z,18.48
2022-11-14T00:48:51.931Z,17.15
2022-11-14T00:51:56.106Z,17.55
2022-11-14T00:55:00.544Z,18.55
2022-11-14T00:58:05.031Z,18.55
2022-11-14T01:01:09.223Z,19.70
2022-11-14T01:04:13.560Z,20.05
2022-11-14T01:07:18.006Z,20.45
2022-11-14T01:10:22.647Z,21.48
2022-11-14T01:13:31.315Z,20.77
2022-11-14T01:16:35.905Z,21.27
2022-11-14T01:19:40.450Z,20.80
2022-11-14T01:22:44.642Z,22.30
2022-11-14T01:25:48.961Z,22.23
2022-11-14T01:28:53.535Z,22.90
2022-11-14T01:31:57.495Z,23.73
2022-11-14T01:35:01.826Z,24.17
2022-11-14T01:38:06.269Z,23.55
2022-11-14T01:41:13.978Z,24.55
2022-11-14T01:44:43.508Z,24.42
2022-11-14T01:47:47.363Z,24.40
2022-11-14T01:50:57.270Z,24.77
2022-11-14T01:54:05.397Z,25.15
2022-11-14T01:57:11.369Z,25.50
2022-11-14T02:00:15.730Z,24.75
2022-11-14T02:03:20.479Z,25.95
2022-11-14T02:06:28.715Z,25.63
2022-11-14T02:09:37.292Z,25.58
2022-11-14T02:12:41.897Z,25.42
2022-11-14T02:15:46.381Z,26.58
2022-11-14T02:18:50.735Z,25.40
2022-11-14T02:21:54.907Z,27.25
2022-11-14T02:24:59.262Z,27.08
2022-11-14T02:28:05.631Z,26.13
2022-11-14T02:31:09.754Z,26.02
2022-11-14T02:34:16.685Z,27.13
2022-11-14T02:37:20.733Z,27.73
2022-11-14T02:40:24.934Z,26.40
2022-11-14T02:43:29.404Z,27.92
2022-11-14T02:46:33.867Z,26.27
2022-11-14T02:49:38.280Z,24.60
2022-11-14T02:52:42.407Z,26.75
2022-11-14T02:55:46.864Z,25.42
2022-11-14T02:58:51.198Z,28.63
2022-11-14T03:01:55.981Z,28.55
2022-11-14T03:05:00.364Z,27.88
2022-11-14T03:08:04.736Z,29.85
2022-11-14T03:11:10.331Z,28.05
2022-11-14T03:14:14.344Z,31.35
2022-11-14T03:17:18.739Z,32.47
2022-11-14T03:20:24.131Z,32.42
2022-11-14T03:23:28.280Z,32.42
2022-11-14T03:26:32.640Z,32.22
2022-11-14T03:29:37.231Z,32.38
2022-11-14T03:32:41.272Z,32.22
2022-11-14T03:35:45.705Z,32.97
2022-11-14T03:38:50.040Z,32.28
2022-11-14T03:41:54.428Z,32.25
2022-11-14T03:44:58.694Z,31.52
2022-11-14T03:48:03.060Z,32.60
2022-11-14T03:51:08.717Z,32.53
2022-11-14T03:54:12.629Z,33.92
2022-11-14T03:57:17.321Z,32.78
2022-11-14T04:00:21.731Z,33.55
2022-11-14T04:03:25.953Z,33.03
2022-11-14T04:06:30.814Z,33.08
2022-11-14T04:09:35.187Z,33.60
2022-11-14T04:12:39.164Z,32.92
2022-11-14T04:15:43.696Z,33.03
2022-11-14T04:18:48.088Z,32.45
2022-11-14T04:21:52.482Z,31.95
2022-11-14T04:24:56.993Z,32.92
2022-11-14T04:28:01.151Z,32.40
2022-11-14T04:31:05.351Z,32.97
2022-11-14T04:34:09.768Z,30.98
2022-11-14T04:37:14.261Z,30.73
2022-11-14T04:40:18.695Z,30.80
2022-11-14T04:43:23.006Z,31.80
2022-11-14T04:46:27.480Z,30.00
2022-11-14T04:49:31.565Z,29.77
2022-11-14T04:52:35.927Z,28.33
2022-11-14T04:55:40.466Z,28.77
2022-11-14T04:58:44.909Z,30.52
2022-11-14T05:01:49.273Z,29.15
2022-11-14T05:04:53.468Z,28.23
2022-11-14T05:07:58.087Z,28.98
2022-11-14T05:11:02.119Z,28.98
2022-11-14T05:14:06.354Z,30.00
2022-11-14T05:17:10.684Z,31.60
2022-11-14T05:20:15.123Z,28.92
2022-11-14T05:23:21.981Z,28.85
2022-11-14T05:26:26.516Z,30.10
2022-11-14T05:29:30.962Z,29.60
2022-11-14T05:32:35.194Z,29.20
2022-11-14T05:35:39.277Z,29.70
2022-11-14T05:38:44.788Z,29.63
2022-11-14T05:41:49.166Z,28.33
2022-11-14T05:44:53.582Z,30.77
2022-11-14T05:47:57.858Z,28.45
2022-11-14T05:51:04.514Z,30.27
2022-11-14T05:54:08.564Z,29.15
2022-11-14T05:57:13.174Z,28.10
2022-11-14T06:00:17.866Z,27.95
2022-11-14T06:03:22.389Z,28.05
2022-11-14T06:06:26.808Z,26.70
2022-11-14T06:09:30.983Z,27.92
2022-11-14T06:12:35.506Z,29.45
2022-11-14T06:15:39.642Z,30.48
2022-11-14T06:18:44.660Z,31.08
2022-11-14T06:21:48.851Z,28.58
2022-11-14T06:24:53.108Z,28.50
2022-11-14T06:27:59.068Z,29.77
2022-11-14T06:31:04.430Z,30.45
2022-11-14T06:34:08.753Z,28.27
2022-11-14T06:37:13.275Z,27.60
2022-11-14T06:40:17.655Z,30.08
2022-11-14T06:43:22.051Z,27.65
2022-11-14T06:46:26.373Z,28.38
2022-11-14T06:49:30.948Z,28.17
2022-11-14T06:52:35.580Z,28.55
2022-11-14T06:55:39.984Z,26.77
2022-11-14T06:58:46.755Z,26.98
2022-11-14T07:01:51.168Z,26.27
2022-11-14T07:04:55.588Z,25.30
2022-11-14T07:08:00.009Z,25.65
2022-11-14T07:11:06.690Z,23.92
2022-11-14T07:14:11.000Z,24.95
2022-11-14T07:17:15.353Z,24.08
2022-11-14T07:20:19.811Z,22.70
2022-11-14T07:23:24.436Z,24.00
2022-11-14T07:26:29.063Z,23.23
2022-11-14T07:29:33.768Z,23.83
2022-11-14T07:32:38.435Z,23.25
2022-11-14T07:35:42.710Z,23.10
2022-11-14T07:38:46.917Z,22.08
2022-11-14T07:41:51.276Z,22.25
2022-11-14T07:44:55.779Z,21.40
2022-11-14T07:48:01.962Z,22.52
2022-11-14T07:51:14.423Z,20.20
2022-11-14T07:54:18.421Z,21.77
2022-11-14T07:57:22.639Z,20.92
2022-11-14T08:00:27.006Z,19.75
2022-11-14T08:03:31.602Z,18.70
2022-11-14T08:06:35.728Z,20.00
2022-11-14T08:09:40.131Z,20.60
2022-11-14T08:12:45.191Z,19.65
2022-11-14T08:15:49.386Z,19.42
2022-11-14T08:18:53.623Z,19.58
2022-11-14T08:21:57.997Z,19.55
2022-11-14T08:25:02.758Z,21.10
2022-11-14T08:28:07.437Z,19.33
2022-11-14T08:31:13.257Z,18.77
2022-11-14T08:34:17.257Z,19.23
2022-11-14T08:37:21.730Z,18.48
2022-11-14T08:40:26.316Z,18.40
2022-11-14T08:43:31.426Z,17.95
2022-11-14T08:46:35.772Z,18.42
2022-11-14T08:49:39.963Z,18.52
2022-11-14T08:52:48.774Z,18.98
2022-11-14T08:55:53.011Z,18.35
2022-11-14T08:58:57.247Z,18.77
2022-11-14T09:02:01.720Z,19.50
2022-11-14T09:05:06.402Z,18.98
2022-11-14T09:08:10.340Z,19.55
2022-11-14T09:11:19.122Z,18.05
2022-11-14T09:14:23.508Z,18.20
2022-11-14T09:17:28.027Z,18.25
2022-11-14T09:20:36.155Z,18.73
2022-11-14T09:23:42.973Z,17.08
2022-11-14T09:26:54.937Z,17.63
2022-11-14T09:33:11.142Z,16.10
2022-11-14T09:36:17.014Z,16.23
2022-11-14T09:39:21.311Z,17.45
2022-11-14T09:42:58.343Z,17.65
2022-11-14T09:46:03.322Z,17.27
2022-11-14T09:49:35.220Z,16.90
2022-11-14T09:52:47.439Z,16.08
2022-11-14T09:55:51.872Z,17.50
2022-11-14T09:58:56.499Z,16.20
2022-11-14T10:02:20.319Z,17.23
2022-11-14T10:05:48.191Z,16.10
2022-11-14T10:09:30.862Z,16.25
2022-11-14T10:12:43.211Z,16.37
2022-11-14T10:16:13.752Z,15.80
2022-11-14T10:19:40.028Z,15.50
2022-11-14T10:22:55.132Z,15.30
2022-11-14T10:26:19.858Z,15.40
2022-11-14T10:29:45.914Z,14.35
2022-11-14T10:33:08.730Z,16.45
2022-11-14T10:36:35.009Z,15.20
2022-11-14T10:39:49.734Z,15.98
2022-11-14T10:43:06.463Z,15.85
2022-11-14T10:46:33.923Z,15.43
2022-11-14T10:49:38.827Z,15.30
2022-11-14T10:52:44.264Z,15.32
2022-11-14T10:56:03.740Z,15.68
2022-11-14T10:59:09.191Z,14.52
2022-11-14T11:02:13.921Z,14.35
2022-11-14T11:05:20.291Z,14.70
2022-11-14T11:08:44.437Z,14.13
2022-11-14T11:11:55.163Z,14.18
2022-11-14T11:15:21.720Z,13.68
2022-11-14T11:18:29.112Z,13.27
2022-11-14T11:21:50.848Z,13.90
2022-11-14T11:24:55.358Z,13.07
2022-11-14T11:28:17.463Z,13.60
2022-11-14T11:31:21.695Z,12.95
2022-11-14T11:34:32.615Z,12.80
2022-11-14T11:37:48.895Z,11.93
2022-11-14T11:40:59.029Z,13.32
2022-11-14T11:44:12.872Z,13.57
2022-11-14T11:47:18.680Z,12.93
2022-11-14T11:50:24.178Z,14.23
2022-11-14T11:53:34.561Z,13.00
2022-11-14T11:56:39.987Z,12.98
2022-11-14T11:59:48.806Z,12.98
2022-11-14T12:02:54.481Z,13.43
2022-11-14T12:06:14.042Z,12.98
2022-11-14T12:10:03.225Z,13.13
2022-11-14T12:13:15.968Z,12.63
2022-11-14T12:16:51.180Z,12.48
2022-11-14T12:20:03.056Z,11.30
2022-11-14T12:23:38.916Z,11.30
2022-11-14T12:27:40.013Z,12.10
2022-11-14T12:30:48.283Z,11.40
2022-11-14T12:33:59.068Z,10.95
2022-11-14T12:37:10.950Z,10.73
2022-11-14T12:40:32.463Z,11.73
2022-11-14T12:43:39.739Z,10.95
2022-11-14T12:47:13.623Z,10.98
2022-11-14T12:50:30.938Z,11.73
2022-11-14T12:53:38.136Z,11.25
2022-11-14T12:56:58.759Z,10.63
2022-11-14T13:00:07.465Z,10.18
2022-11-14T13:03:35.342Z,10.77
2022-11-14T13:06:59.321Z,10.55
2022-11-14T13:10:33.100Z,11.43
2022-11-14T13:14:20.071Z,11.70
2022-11-14T13:17:45.773Z,11.60
2022-11-14T13:21:21.708Z,11.43
2022-11-14T13:24:25.872Z,11.77
2022-11-14T13:28:00.104Z,12.38
2022-11-14T13:31:14.719Z,13.73
2022-11-14T13:34:46.307Z,13.40
2022-11-14T13:38:32.538Z,12.70
2022-11-14T13:42:00.659Z,12.00
2022-11-14T13:45:37.034Z,12.68
2022-11-14T13:48:47.473Z,12.80
2022-11-14T13:51:53.798Z,12.80
2022-11-14T13:54:59.080Z,13.85
2022-11-14T13:58:34.814Z,14.65
2022-11-14T14:02:08.012Z,13.27
2022-11-14T14:05:28.009Z,13.48
2022-11-14T14:09:08.708Z,14.60
2022-11-14T14:12:44.526Z,14.95
2022-11-14T14:15:48.871Z,14.80
2022-11-14T14:19:07.789Z,14.85
2022-11-14T14:22:40.353Z,15.10
2022-11-14T14:26:22.808Z,16.00
2022-11-14T14:29:43.997Z,20.60
2022-11-14T14:33:09.503Z,21.33
2022-11-14T14:36:22.526Z,23.17
2022-11-14T14:39:28.652Z,23.38
2022-11-14T14:42:40.839Z,23.02
2022-11-14T14:45:49.026Z,23.13
2022-11-14T14:48:53.708Z,23.65
2022-11-14T14:51:58.914Z,24.17
2022-11-14T14:55:06.729Z,22.10
2022-11-14T14:58:23.457Z,22.73
2022-11-14T15:01:34.143Z,22.38
2022-11-14T15:04:40.071Z,22.38
2022-11-14T15:07:46.316Z,21.83
2022-11-14T15:10:52.555Z,20.90
2022-11-14T15:13:58.315Z,21.15
2022-11-14T15:17:04.536Z,20.30
2022-11-14T15:20:22.828Z,20.58
2022-11-14T15:23:26.961Z,20.35
2022-11-14T15:26:31.608Z,21.40
2022-11-14T15:29:35.881Z,20.67
2022-11-14T15:32:50.122Z,21.45
2022-11-14T15:36:17.694Z,20.20
2022-11-14T15:39:27.785Z,21.67
2022-11-14T15:42:31.803Z,20.02
2022-11-14T15:45:40.390Z,20.77
2022-11-14T15:48:44.789Z,21.13
2022-11-14T15:51:49.095Z,20.80
2022-11-14T15:54:53.384Z,21.05
2022-11-14T15:58:21.421Z,21.55
2022-11-14T16:01:27.970Z,22.05
2022-11-14T16:04:35.903Z,21.85
2022-11-14T16:07:40.412Z,23.85
2022-11-14T16:10:44.952Z,23.60
2022-11-14T16:13:49.360Z,22.95
2022-11-14T16:16:53.952Z,25.15
2022-11-14T16:19:59.008Z,24.42
2022-11-14T16:23:03.270Z,24.13
2022-11-14T16:26:07.337Z,24.98
2022-11-14T16:29:12.117Z,25.90
2022-11-14T16:32:16.436Z,26.55
2022-11-14T16:35:26.186Z,28.33
2022-11-14T16:38:30.791Z,27.85
2022-11-14T16:41:35.045Z,25.75
2022-11-14T16:44:43.920Z,26.48
2022-11-14T16:47:51.002Z,26.30
2022-11-14T16:50:56.965Z,28.63
2022-11-14T16:54:01.556Z,26.27
2022-11-14T16:57:05.773Z,28.13
2022-11-14T17:00:12.726Z,27.42
2022-11-14T17:03:18.108Z,27.17
2022-11-14T17:06:22.215Z,26.88
2022-11-14T17:09:26.671Z,27.48
2022-11-14T17:12:32.177Z,27.17
2022-11-14T17:15:36.681Z,26.15
2022-11-14T17:18:42.216Z,27.67
2022-11-14T17:21:46.393Z,29.25
2022-11-14T17:24:50.680Z,29.25
2022-11-14T17:27:55.038Z,27.90
2022-11-14T17:30:59.492Z,30.10
2022-11-14T17:34:03.711Z,28.38
2022-11-14T17:37:07.937Z,29.58
2022-11-14T17:40:15.488Z,28.52
2022-11-14T17:43:20.256Z,28.10
2022-11-14T17:46:24.644Z,26.58
2022-11-14T17:49:29.006Z,27.52
2022-11-14T17:52:33.170Z,26.42
2022-11-14T17:55:38.547Z,27.67
2022-11-14T17:58:44.014Z,27.23
2022-11-14T18:01:48.421Z,28.23
2022-11-14T18:04:52.552Z,28.85
2022-11-14T18:07:56.807Z,28.67
2022-11-14T18:11:02.157Z,27.23
2022-11-14T18:14:06.538Z,27.08
2022-11-14T18:17:13.432Z,27.58
2022-11-14T18:20:17.954Z,26.75
2022-11-14T18:23:22.336Z,25.50
2022-11-14T18:26:28.629Z,24.92
2022-11-14T18:29:32.580Z,25.38
2022-11-14T18:32:37.072Z,26.60
2022-11-14T18:35:41.303Z,30.58
2022-11-14T18:38:46.037Z,27.77
2022-11-14T18:41:50.447Z,24.50
2022-11-14T18:44:54.860Z,23.75
2022-11-14T18:47:59.228Z,23.98
2022-11-14T18:51:06.822Z,23.10
2022-11-14T18:54:18.798Z,24.17
2022-11-14T18:57:23.091Z,24.40
2022-11-14T19:00:27.654Z,25.00
2022-11-14T19:03:32.354Z,24.60
2022-11-14T19:06:39.010Z,24.27
2022-11-14T19:09:44.471Z,24.23
2022-11-14T19:12:48.891Z,24.35
2022-11-14T19:15:52.900Z,24.42
2022-11-14T19:18:58.272Z,24.75
2022-11-14T19:22:03.965Z,24.10
2022-11-14T19:25:09.254Z,23.17
2022-11-14T19:28:13.430Z,22.95
2022-11-14T19:31:18.416Z,22.65
2022-11-14T19:34:22.682Z,21.13
2022-11-14T19:37:27.957Z,20.15
2022-11-14T19:40:32.040Z,20.67
2022-11-14T19:43:40.189Z,21.33
2022-11-14T19:46:47.830Z,19.35
2022-11-14T19:49:52.336Z,20.48
2022-11-14T19:52:57.204Z,20.25
2022-11-14T19:56:03.797Z,19.17
2022-11-14T19:59:13.999Z,19.10
2022-11-14T20:02:20.059Z,19.65
2022-11-14T20:05:24.217Z,19.15
2022-11-14T20:08:28.684Z,19.20
2022-11-14T20:11:33.938Z,17.85
2022-11-14T20:14:38.139Z,17.52
2022-11-14T20:17:42.787Z,17.67
2022-11-14T20:20:46.999Z,18.05
2022-11-14T20:23:51.779Z,18.95
2022-11-14T20:26:56.156Z,18.10
2022-11-14T20:30:00.855Z,18.65
2022-11-14T20:33:05.629Z,18.38
2022-11-14T20:36:12.944Z,18.38
2022-11-14T20:39:17.375Z,17.75
2022-11-14T20:42:21.775Z,18.38
2022-11-14T20:45:26.788Z,16.90
2022-11-14T20:48:33.731Z,19.35
2022-11-14T20:51:38.854Z,19.42
2022-11-14T20:54:43.512Z,20.15
2022-11-14T20:57:47.928Z,20.63
2022-11-14T21:00:52.843Z,19.33
2022-11-14T21:03:57.214Z,19.65
2022-11-14T21:07:01.847Z,19.42
2022-11-14T21:10:25.352Z,20.27
2022-11-14T21:13:48.670Z,19.83
2022-11-14T21:16:53.097Z,20.90
2022-11-14T21:19:58.059Z,22.13
2022-11-14T21:23:02.342Z,21.52
2022-11-14T21:26:07.752Z,21.42
2022-11-14T21:29:14.241Z,22.83
2022-11-14T21:32:18.422Z,23.35
2022-11-14T21:35:22.919Z,21.98
2022-11-14T21:38:27.585Z,22.05
2022-11-14T21:41:32.258Z,20.52
2022-11-14T21:44:36.814Z,21.73
2022-11-14T21:47:40.857Z,20.27
2022-11-14T21:50:45.239Z,22.08
2022-11-14T21:53:53.856Z,20.20
2022-11-14T21:56:58.523Z,19.70
2022-11-14T22:00:03.027Z,19.83
2022-11-14T22:03:29.920Z,20.60
2022-11-14T22:06:34.274Z,19.98
2022-11-14T22:09:44.033Z,20.52
2022-11-14T22:12:49.461Z,20.17
2022-11-14T22:15:53.886Z,19.25
2022-11-14T22:19:04.559Z,18.83
2022-11-14T22:22:09.303Z,19.15
2022-11-14T22:25:13.885Z,17.23
2022-11-14T22:28:18.094Z,17.23
2022-11-14T22:31:24.387Z,16.48
2022-11-14T22:34:28.920Z,16.02
2022-11-14T22:37:33.391Z,15.52
2022-11-14T22:40:38.271Z,15.73
2022-11-14T22:43:43.139Z,16.35
2022-11-14T22:46:47.660Z,17.38
2022-11-14T22:49:51.686Z,16.05
2022-11-14T22:52:56.218Z,16.23
2022-11-14T22:56:01.579Z,15.88
2022-11-14T22:59:06.010Z,15.73
2022-11-14T23:02:10.508Z,15.65
2022-11-14T23:05:14.851Z,16.08
2022-11-14T23:08:20.637Z,16.80
2022-11-14T23:11:27.591Z,17.45
2022-11-14T23:14:31.928Z,16.70
2022-11-14T23:17:36.129Z,18.05
2022-11-14T23:20:40.358Z,17.38
2022-11-14T23:23:44.956Z,17.48
2022-11-14T23:26:49.179Z,18.90
2022-11-14T23:29:53.392Z,21.00
2022-11-14T23:32:57.544Z,22.25
2022-11-14T23:36:02.130Z,22.02
2022-11-14T23:39:06.157Z,23.67
2022-11-14T23:42:10.750Z,22.40
2022-11-14T23:45:14.981Z,21.23
2022-11-14T23:48:20.634Z,20.67
2022-11-14T23:51:24.755Z,21.25
2022-11-14T23:54:29.227Z,21.60
2022-11-14T23:57:33.590Z,20.55
